Wetterdaten: Woche 26.01.09 - 01.02.09 (KW5)
Datum Zeit Temp. A. Feuchte A. Luftdruck Regen Wind Richtung Taupunkt Windchill Windben
26.01.2009 00:00 -0,8 C 86 % 1002,2 hPa 0,0 l/m 0,0 km/h (0 Bft) N -2,9 C -0,8 C 0,0 km/h (0 Bft)
26.01.2009 01:00 -0,9 C 86 % 1002,0 hPa 0,0 l/m 0,0 km/h (0 Bft) N -2,9 C -0,9 C 0,0 km/h (0 Bft)
26.01.2009 02:00 -0,8 C 87 % 1002,2 hPa 0,0 l/m 0,0 km/h (0 Bft) N -2,7 C -0,8 C 0,0 km/h (0 Bft)
26.01.2009 03:00 -0,8 C 87 % 1002,1 hPa 0,0 l/m 0,0 km/h (0 Bft) N -2,7 C -0,8 C 0,0 km/h (0 Bft)
26.01.2009 04:00 -0,8 C 87 % 1002,2 hPa 0,0 l/m 0,0 km/h (0 Bft) N -2,7 C -0,8 C 0,0 km/h (0 Bft)
26.01.2009 05:00 -0,6 C 88 % 1002,3 hPa 0,0 l/m 0,0 km/h (0 Bft) N -2,4 C -0,6 C 0,4 km/h (0 Bft)
26.01.2009 06:00 -0,6 C 88 % 1002,7 hPa 0,0 l/m 0,0 km/h (0 Bft) N -2,4 C -0,6 C 0,4 km/h (0 Bft)
26.01.2009 07:00 -0,6 C 89 % 1003,2 hPa 0,0 l/m 0,0 km/h (0 Bft) N -2,3 C -0,6 C 0,0 km/h (0 Bft)
26.01.2009 08:00 -0,4 C 89 % 1003,6 hPa 0,0 l/m 0,0 km/h (0 Bft) N -1,9 C -0,4 C 0,8 km/h (0 Bft)
26.01.2009 09:00 0,5 C 90 % 1003,8 hPa 0,0 l/m 1,3 km/h (1 Bft) O-SO -1,0 C 0,5 C 4,4 km/h (1 Bft)
26.01.2009 10:00 1,5 C 85 % 1004,1 hPa 0,0 l/m 1,4 km/h (1 Bft) O-SO -0,7 C 1,5 C 6,0 km/h (2 Bft)
26.01.2009 11:00 2,6 C 80 % 1003,8 hPa 0,0 l/m 0,8 km/h (0 Bft) O-SO -0,6 C 2,6 C 4,8 km/h (1 Bft)
26.01.2009 12:00 3,7 C 76 % 1003,3 hPa 0,0 l/m 2,4 km/h (1 Bft) O -0,2 C 3,7 C 9,3 km/h (2 Bft)
26.01.2009 13:00 4,8 C 72 % 1003,0 hPa 0,0 l/m 1,7 km/h (1 Bft) O 0,1 C 4,8 C 8,0 km/h (2 Bft)
26.01.2009 14:00 5,1 C 72 % 1002,8 hPa 0,0 l/m 3,5 km/h (1 Bft) O 0,5 C 5,1 C 10,1 km/h (2 Bft)
26.01.2009 15:00 5,1 C 73 % 1003,1 hPa 0,0 l/m 3,7 km/h (1 Bft) O-NO 0,5 C 5,1 C 11,3 km/h (2 Bft)
26.01.2009 16:00 3,6 C 79 % 1003,5 hPa 0,0 l/m 2,4 km/h (1 Bft) O-NO 0,2 C 3,6 C 6,8 km/h (2 Bft)
26.01.2009 17:00 1,6 C 82 % 1004,0 hPa 0,0 l/m 0,4 km/h (0 Bft) O -1,1 C 1,6 C 2,4 km/h (1 Bft)
26.01.2009 18:00 -0,1 C 85 % 1004,7 hPa 0,0 l/m 0,0 km/h (0 Bft) N -2,4 C -0,1 C 0,0 km/h (0 Bft)
26.01.2009 19:00 -1,0 C 87 % 1005,2 hPa 0,0 l/m 0,0 km/h (0 Bft) N -2,9 C -1,0 C 0,4 km/h (0 Bft)
26.01.2009 20:00 -1,9 C 88 % 1005,7 hPa 0,0 l/m 0,0 km/h (0 Bft) N -3,6 C -1,9 C 0,0 km/h (0 Bft)
26.01.2009 21:00 -2,4 C 89 % 1006,1 hPa 0,0 l/m 0,0 km/h (0 Bft) N -4,0 C -2,4 C 0,4 km/h (0 Bft)
26.01.2009 22:00 -2,5 C 90 % 1006,1 hPa 0,0 l/m 0,0 km/h (0 Bft) N -4,0 C -2,5 C 0,0 km/h (0 Bft)
26.01.2009 23:00 -2,9 C 89 % 1006,3 hPa 0,0 l/m 0,0 km/h (0 Bft) N -4,4 C -2,9 C 0,0 km/h (0 Bft)
27.01.2009 00:00 -3,3 C 90 % 1006,4 hPa 0,0 l/m 0,0 km/h (0 Bft) N -4,6 C -3,3 C 0,4 km/h (0 Bft)
27.01.2009 01:00 -3,2 C 90 % 1006,8 hPa 0,0 l/m 0,0 km/h (0 Bft) N -4,6 C -3,2 C 0,0 km/h (0 Bft)
27.01.2009 02:00 -3,1 C 91 % 1007,1 hPa 0,0 l/m 0,0 km/h (0 Bft) N -4,3 C -3,1 C 0,0 km/h (0 Bft)
27.01.2009 03:00 -3,0 C 91 % 1007,4 hPa 0,0 l/m 0,0 km/h (0 Bft) N -4,2 C -3,0 C 1,6 km/h (1 Bft)
27.01.2009 04:00 -2,5 C 92 % 1007,9 hPa 0,0 l/m 0,0 km/h (0 Bft) N -3,6 C -2,5 C 1,2 km/h (1 Bft)
27.01.2009 05:00 -1,6 C 92 % 1008,2 hPa 0,0 l/m 0,1 km/h (0 Bft) N -2,7 C -1,6 C 2,4 km/h (1 Bft)
27.01.2009 06:00 -0,7 C 92 % 1008,7 hPa 0,0 l/m 0,1 km/h (0 Bft) N -1,9 C -0,7 C 1,2 km/h (1 Bft)
27.01.2009 07:00 -0,3 C 92 % 1009,4 hPa 0,0 l/m 0,2 km/h (0 Bft) N -1,4 C -0,3 C 2,8 km/h (1 Bft)
27.01.2009 08:00 -0,0 C 92 % 1009,9 hPa 0,0 l/m 0,3 km/h (0 Bft) N -1,2 C -0,0 C 2,4 km/h (1 Bft)
27.01.2009 09:00 0,3 C 93 % 1010,1 hPa 0,0 l/m 0,3 km/h (0 Bft) N -0,8 C 0,3 C 2,0 km/h (1 Bft)
27.01.2009 10:00 0,8 C 93 % 1010,8 hPa 0,3 l/m 0,1 km/h (0 Bft) N -0,2 C 0,8 C 2,0 km/h (1 Bft)
27.01.2009 11:00 0,9 C 93 % 1010,8 hPa 1,2 l/m 1,1 km/h (1 Bft) N-NW -0,1 C 0,9 C 4,8 km/h (1 Bft)
27.01.2009 12:00 1,1 C 93 % 1010,5 hPa 0,3 l/m 2,8 km/h (1 Bft) N-NW 0,1 C 1,1 C 6,4 km/h (2 Bft)
27.01.2009 13:00 1,3 C 93 % 1010,2 hPa 0,6 l/m 2,8 km/h (1 Bft) NW 0,2 C 1,3 C 6,4 km/h (2 Bft)
27.01.2009 14:00 1,4 C 92 % 1010,1 hPa 0,3 l/m 2,8 km/h (1 Bft) NW 0,3 C 1,4 C 7,2 km/h (2 Bft)
27.01.2009 15:00 1,5 C 92 % 1010,2 hPa 0,3 l/m 5,7 km/h (1 Bft) NW 0,3 C 0,9 C 12,5 km/h (3 Bft)
27.01.2009 16:00 1,3 C 91 % 1010,6 hPa 0,9 l/m 7,1 km/h (2 Bft) W-SW -0,0 C 0,6 C 18,5 km/h (3 Bft)
27.01.2009 17:00 1,3 C 91 % 1010,9 hPa 0,3 l/m 7,3 km/h (2 Bft) N-NW -0,0 C 0,1 C 16,5 km/h (3 Bft)
27.01.2009 18:00 1,3 C 91 % 1011,1 hPa 0,3 l/m 6,4 km/h (2 Bft) NW -0,1 C 1,2 C 15,7 km/h (3 Bft)
27.01.2009 19:00 1,3 C 91 % 1011,6 hPa 0,6 l/m 5,8 km/h (2 Bft) NW -0,1 C 1,3 C 11,7 km/h (2 Bft)
27.01.2009 20:00 1,3 C 91 % 1011,9 hPa 0,3 l/m 5,9 km/h (2 Bft) NW -0,0 C 1,3 C 14,5 km/h (3 Bft)
27.01.2009 21:00 1,2 C 91 % 1011,9 hPa 0,3 l/m 6,4 km/h (2 Bft) W-NW -0,1 C 0,8 C 14,5 km/h (3 Bft)
27.01.2009 22:00 1,2 C 91 % 1012,1 hPa 0,6 l/m 7,4 km/h (2 Bft) NW -0,2 C 0,2 C 16,1 km/h (3 Bft)
27.01.2009 23:00 0,9 C 91 % 1012,5 hPa 0,3 l/m 5,7 km/h (1 Bft) NW -0,4 C 0,5 C 12,5 km/h (3 Bft)
28.01.2009 00:00 0,7 C 92 % 1012,7 hPa 0,3 l/m 5,0 km/h (1 Bft) NW -0,5 C 0,7 C 10,1 km/h (2 Bft)
28.01.2009 01:00 0,8 C 92 % 1012,1 hPa 0,6 l/m 9,2 km/h (2 Bft) NW -0,4 C -1,8 C 20,5 km/h (4 Bft)
28.01.2009 02:00 0,9 C 91 % 1012,5 hPa 0,0 l/m 7,6 km/h (2 Bft) NW -0,4 C -0,6 C 14,9 km/h (3 Bft)
28.01.2009 03:00 0,9 C 91 % 1012,7 hPa 0,3 l/m 9,1 km/h (2 Bft) W-NW -0,4 C -1,6 C 18,5 km/h (3 Bft)
28.01.2009 04:00 0,8 C 91 % 1012,7 hPa 0,3 l/m 8,4 km/h (2 Bft) W-NW -0,6 C -1,2 C 18,1 km/h (3 Bft)
28.01.2009 05:00 0,9 C 91 % 1012,9 hPa 0,0 l/m 9,5 km/h (2 Bft) NW -0,4 C -2,0 C 19,3 km/h (3 Bft)
28.01.2009 06:00 0,9 C 90 % 1012,7 hPa 0,0 l/m 9,5 km/h (2 Bft) W-NW -0,5 C -2,0 C 19,3 km/h (3 Bft)
28.01.2009 07:00 1,0 C 90 % 1013,0 hPa 0,0 l/m 10,2 km/h (2 Bft) W-NW -0,5 C -2,5 C 20,5 km/h (4 Bft)
28.01.2009 08:00 1,1 C 89 % 1013,2 hPa 0,3 l/m 11,3 km/h (2 Bft) NW -0,5 C -3,2 C 24,5 km/h (4 Bft)
28.01.2009 09:00 1,1 C 88 % 1013,5 hPa 0,0 l/m 10,5 km/h (2 Bft) W-NW -0,6 C -2,6 C 25,0 km/h (4 Bft)
28.01.2009 10:00 1,1 C 88 % 1013,5 hPa 0,3 l/m 11,4 km/h (2 Bft) NW -0,6 C -3,3 C 24,1 km/h (4 Bft)
28.01.2009 11:00 1,0 C 89 % 1013,5 hPa 0,3 l/m 10,4 km/h (2 Bft) NW -0,7 C -2,7 C 22,1 km/h (4 Bft)
28.01.2009 12:00 0,8 C 90 % 1013,4 hPa 0,6 l/m 10,3 km/h (2 Bft) NW -0,7 C -2,7 C 23,3 km/h (4 Bft)
28.01.2009 13:00 1,0 C 90 % 1013,0 hPa 0,3 l/m 12,1 km/h (2 Bft) NW -0,5 C -3,9 C 28,2 km/h (4 Bft)
28.01.2009 14:00 1,2 C 89 % 1012,9 hPa 0,0 l/m 13,3 km/h (3 Bft) W-NW -0,5 C -4,5 C 25,3 km/h (4 Bft)
28.01.2009 15:00 1,3 C 88 % 1013,4 hPa 0,0 l/m 12,7 km/h (3 Bft) NW -0,5 C -4,0 C 27,0 km/h (4 Bft)
28.01.2009 16:00 1,0 C 89 % 1013,5 hPa 0,3 l/m 11,4 km/h (2 Bft) NW -0,7 C -3,4 C 23,3 km/h (4 Bft)
28.01.2009 17:00 0,8 C 90 % 1013,6 hPa 0,3 l/m 11,9 km/h (2 Bft) W-NW -0,7 C -4,0 C 22,5 km/h (4 Bft)
28.01.2009 18:00 0,7 C 91 % 1013,9 hPa 0,6 l/m 10,0 km/h (2 Bft) NW -0,6 C -2,7 C 22,1 km/h (4 Bft)
28.01.2009 19:00 0,6 C 91 % 1014,3 hPa 0,3 l/m 9,6 km/h (2 Bft) NW -0,7 C -2,5 C 19,3 km/h (3 Bft)
28.01.2009 20:00 0,6 C 92 % 1014,3 hPa 0,3 l/m 10,3 km/h (2 Bft) NW -0,5 C -3,1 C 21,7 km/h (4 Bft)
28.01.2009 21:00 0,6 C 92 % 1014,5 hPa 0,6 l/m 12,9 km/h (3 Bft) NW -0,6 C -4,8 C 23,3 km/h (4 Bft)
28.01.2009 22:00 0,7 C 90 % 1014,5 hPa 0,0 l/m 13,4 km/h (3 Bft) NW -0,8 C -5,1 C 25,8 km/h (4 Bft)
28.01.2009 23:00 0,4 C 89 % 1014,7 hPa 0,0 l/m 11,9 km/h (2 Bft) NW -1,1 C -4,4 C 23,3 km/h (4 Bft)
29.01.2009 00:00 0,4 C 88 % 1014,9 hPa 0,0 l/m 12,7 km/h (3 Bft) N-NW -1,5 C -5,0 C 25,7 km/h (4 Bft)
29.01.2009 01:00 0,2 C 87 % 1015,1 hPa 0,0 l/m 11,1 km/h (2 Bft) NW -1,7 C -4,1 C 22,9 km/h (4 Bft)
29.01.2009 02:00 -0,2 C 89 % 1015,4 hPa 0,0 l/m 11,8 km/h (2 Bft) NW -1,9 C -5,1 C 23,7 km/h (4 Bft)
29.01.2009 03:00 -0,4 C 89 % 1015,4 hPa 0,0 l/m 12,1 km/h (2 Bft) NW -2,0 C -5,5 C 26,5 km/h (4 Bft)
29.01.2009 04:00 -0,6 C 89 % 1015,8 hPa 0,0 l/m 12,7 km/h (3 Bft) NW -2,1 C -6,1 C 26,6 km/h (4 Bft)
29.01.2009 05:00 -0,5 C 88 % 1016,2 hPa 0,0 l/m 13,0 km/h (3 Bft) NW -2,2 C -6,3 C 26,9 km/h (4 Bft)
29.01.2009 06:00 -0,3 C 87 % 1016,6 hPa 0,0 l/m 12,0 km/h (2 Bft) W -2,2 C -5,3 C 24,1 km/h (4 Bft)
29.01.2009 07:00 -0,3 C 88 % 1016,9 hPa 0,0 l/m 11,6 km/h (2 Bft) NW -2,1 C -5,1 C 23,7 km/h (4 Bft)
29.01.2009 08:00 -0,2 C 88 % 1017,5 hPa 0,0 l/m 11,5 km/h (2 Bft) NW -2,0 C -4,8 C 23,7 km/h (4 Bft)
29.01.2009 09:00 0,2 C 87 % 1018,0 hPa 0,0 l/m 10,8 km/h (2 Bft) W-NW -1,8 C -3,8 C 22,1 km/h (4 Bft)
29.01.2009 10:00 0,3 C 86 % 1018,5 hPa 0,0 l/m 10,4 km/h (2 Bft) W-NW -1,7 C -3,4 C 20,5 km/h (4 Bft)
29.01.2009 11:00 0,6 C 85 % 1018,9 hPa 0,3 l/m 11,5 km/h (2 Bft) N-NW -1,6 C -4,0 C 22,9 km/h (4 Bft)
29.01.2009 12:00 0,6 C 84 % 1019,1 hPa 0,3 l/m 10,3 km/h (2 Bft) NW -1,7 C -3,0 C 21,3 km/h (4 Bft)
29.01.2009 13:00 0,4 C 86 % 1019,0 hPa 0,3 l/m 11,3 km/h (2 Bft) NW -1,7 C -4,0 C 22,5 km/h (4 Bft)
29.01.2009 14:00 0,4 C 87 % 1019,2 hPa 0,0 l/m 10,5 km/h (2 Bft) NW -1,5 C -3,3 C 22,5 km/h (4 Bft)
29.01.2009 15:00 0,3 C 88 % 1019,7 hPa 0,0 l/m 8,7 km/h (2 Bft) N-NW -1,5 C -2,0 C 19,8 km/h (4 Bft)
29.01.2009 16:00 0,2 C 88 % 1020,2 hPa 0,0 l/m 10,0 km/h (2 Bft) NW -1,6 C -3,2 C 21,3 km/h (4 Bft)
29.01.2009 17:00 0,1 C 87 % 1020,8 hPa 0,0 l/m 7,7 km/h (2 Bft) NW -1,8 C -1,3 C 18,9 km/h (3 Bft)
29.01.2009 18:00 0,0 C 88 % 1021,3 hPa 0,0 l/m 10,6 km/h (2 Bft) N-NW -1,8 C -3,9 C 21,3 km/h (4 Bft)
29.01.2009 19:00 -0,2 C 88 % 1021,8 hPa 0,0 l/m 9,2 km/h (2 Bft) NW -1,9 C -2,9 C 20,1 km/h (4 Bft)
29.01.2009 20:00 -0,3 C 88 % 1022,3 hPa 0,0 l/m 9,0 km/h (2 Bft) NW -2,1 C -2,9 C 19,7 km/h (3 Bft)
29.01.2009 21:00 -0,5 C 88 % 1022,5 hPa 0,0 l/m 7,9 km/h (2 Bft) NW -2,2 C -2,1 C 17,7 km/h (3 Bft)
29.01.2009 22:00 -0,7 C 88 % 1022,7 hPa 0,0 l/m 8,8 km/h (2 Bft) W-NW -2,4 C -3,1 C 19,3 km/h (3 Bft)
29.01.2009 23:00 -0,7 C 88 % 1022,7 hPa 0,0 l/m 8,2 km/h (2 Bft) NW -2,4 C -2,5 C 18,1 km/h (3 Bft)
30.01.2009 00:00 -0,5 C 85 % 1022,7 hPa 0,0 l/m 8,8 km/h (2 Bft) W-NW -2,8 C -2,9 C 18,9 km/h (3 Bft)
30.01.2009 01:00 -0,4 C 82 % 1022,9 hPa 0,0 l/m 8,8 km/h (2 Bft) W-NW -3,0 C -2,8 C 17,7 km/h (3 Bft)
30.01.2009 02:00 -0,5 C 81 % 1023,0 hPa 0,0 l/m 9,9 km/h (2 Bft) NW -3,3 C -3,9 C 21,7 km/h (4 Bft)
30.01.2009 03:00 -0,6 C 81 % 1023,3 hPa 0,0 l/m 7,7 km/h (2 Bft) N -3,4 C -2,0 C 17,3 km/h (3 Bft)
30.01.2009 04:00 -0,7 C 81 % 1023,5 hPa 0,0 l/m 7,4 km/h (2 Bft) NW -3,5 C -1,7 C 14,9 km/h (3 Bft)
30.01.2009 05:00 -0,7 C 81 % 1023,4 hPa 0,0 l/m 7,3 km/h (2 Bft) NW -3,6 C -1,6 C 16,9 km/h (3 Bft)
30.01.2009 06:00 -0,8 C 80 % 1023,6 hPa 0,0 l/m 7,4 km/h (2 Bft) NW -3,8 C -1,8 C 16,1 km/h (3 Bft)
30.01.2009 07:00 -0,8 C 80 % 1023,9 hPa 0,0 l/m 7,2 km/h (2 Bft) NW -3,8 C -1,8 C 16,9 km/h (3 Bft)
30.01.2009 08:00 -0,9 C 81 % 1024,1 hPa 0,0 l/m 5,5 km/h (1 Bft) NW -3,7 C -0,9 C 12,9 km/h (3 Bft)
30.01.2009 09:00 -0,8 C 81 % 1024,3 hPa 0,0 l/m 6,8 km/h (2 Bft) NW -3,7 C -1,3 C 17,3 km/h (3 Bft)
30.01.2009 10:00 -0,6 C 79 % 1024,4 hPa 0,0 l/m 8,0 km/h (2 Bft) NW -3,7 C -2,2 C 17,7 km/h (3 Bft)
30.01.2009 11:00 -0,5 C 79 % 1024,4 hPa 0,0 l/m 7,5 km/h (2 Bft) W-NW -3,7 C -1,7 C 15,7 km/h (3 Bft)
30.01.2009 12:00 -0,5 C 78 % 1024,0 hPa 0,0 l/m 7,2 km/h (2 Bft) NW -3,8 C -1,3 C 16,1 km/h (3 Bft)
30.01.2009 13:00 -0,5 C 78 % 1023,4 hPa 0,0 l/m 8,1 km/h (2 Bft) NW -3,9 C -2,2 C 17,3 km/h (3 Bft)
30.01.2009 14:00 -0,6 C 79 % 1023,2 hPa 0,0 l/m 8,2 km/h (2 Bft) W-SW -3,8 C -2,5 C 18,9 km/h (3 Bft)
30.01.2009 15:00 -0,6 C 79 % 1023,1 hPa 0,0 l/m 7,7 km/h (2 Bft) W -3,8 C -2,0 C 18,1 km/h (3 Bft)
30.01.2009 16:00 -0,6 C 78 % 1023,1 hPa 0,0 l/m 7,4 km/h (2 Bft) W -3,9 C -1,7 C 17,3 km/h (3 Bft)
30.01.2009 17:00 -0,6 C 77 % 1023,2 hPa 0,0 l/m 7,2 km/h (2 Bft) W-NW -4,1 C -1,4 C 18,9 km/h (3 Bft)
30.01.2009 18:00 -0,6 C 77 % 1023,4 hPa 0,0 l/m 6,9 km/h (2 Bft) W-NW -4,1 C -1,2 C 17,3 km/h (3 Bft)
30.01.2009 19:00 -0,7 C 77 % 1023,3 hPa 0,0 l/m 6,5 km/h (2 Bft) W-NW -4,2 C -1,0 C 17,7 km/h (3 Bft)
30.01.2009 20:00 -0,8 C 77 % 1023,2 hPa 0,0 l/m 6,3 km/h (2 Bft) W -4,3 C -1,0 C 14,9 km/h (3 Bft)
30.01.2009 21:00 -0,8 C 77 % 1023,0 hPa 0,0 l/m 6,5 km/h (2 Bft) W-NW -4,3 C -1,0 C 15,3 km/h (3 Bft)
30.01.2009 22:00 -0,8 C 78 % 1022,7 hPa 0,0 l/m 7,9 km/h (2 Bft) W-NW -4,2 C -2,4 C 18,9 km/h (3 Bft)
30.01.2009 23:00 -0,8 C 78 % 1022,4 hPa 0,0 l/m 6,8 km/h (2 Bft) NW -4,1 C -1,4 C 15,7 km/h (3 Bft)
31.01.2009 00:00 -0,9 C 78 % 1021,9 hPa 0,0 l/m 5,8 km/h (2 Bft) W-NW -4,2 C -1,2 C 13,7 km/h (3 Bft)
31.01.2009 01:00 -1,0 C 79 % 1021,6 hPa 0,0 l/m 4,3 km/h (1 Bft) W-NW -4,2 C -1,0 C 8,8 km/h (2 Bft)
31.01.2009 02:00 -1,1 C 80 % 1021,4 hPa 0,0 l/m 5,0 km/h (1 Bft) NW -4,1 C -1,1 C 11,3 km/h (2 Bft)
31.01.2009 03:00 -1,1 C 80 % 1021,3 hPa 0,0 l/m 5,6 km/h (1 Bft) NW -4,1 C -1,1 C 13,7 km/h (3 Bft)
31.01.2009 04:00 -1,2 C 80 % 1021,1 hPa 0,0 l/m 5,4 km/h (1 Bft) NW -4,2 C -1,2 C 14,5 km/h (3 Bft)
31.01.2009 05:00 -1,3 C 81 % 1020,7 hPa 0,0 l/m 5,6 km/h (1 Bft) W-SW -4,1 C -1,3 C 12,5 km/h (3 Bft)
31.01.2009 06:00 -1,3 C 81 % 1020,6 hPa 0,0 l/m 5,9 km/h (2 Bft) NW -4,2 C -1,3 C 14,5 km/h (3 Bft)
31.01.2009 07:00 -1,3 C 81 % 1020,5 hPa 0,0 l/m 5,7 km/h (1 Bft) W-NW -4,2 C -1,4 C 12,9 km/h (3 Bft)
31.01.2009 08:00 -1,4 C 83 % 1020,3 hPa 0,0 l/m 6,0 km/h (2 Bft) NW -4,0 C -1,5 C 14,1 km/h (3 Bft)
31.01.2009 09:00 -1,3 C 85 % 1020,0 hPa 0,0 l/m 4,7 km/h (1 Bft) NW -3,6 C -1,3 C 10,4 km/h (2 Bft)
31.01.2009 10:00 -0,6 C 82 % 1019,7 hPa 0,0 l/m 5,4 km/h (1 Bft) N-NW -3,3 C -0,6 C 11,3 km/h (2 Bft)
31.01.2009 11:00 -0,1 C 80 % 1019,2 hPa 0,3 l/m 6,7 km/h (2 Bft) NW -3,1 C -0,6 C 14,9 km/h (3 Bft)
31.01.2009 12:00 0,5 C 78 % 1018,7 hPa 0,0 l/m 7,5 km/h (2 Bft) W -3,0 C -0,6 C 16,9 km/h (3 Bft)
31.01.2009 13:00 0,6 C 77 % 1018,0 hPa 0,0 l/m 7,0 km/h (2 Bft) W -3,0 C -0,0 C 17,3 km/h (3 Bft)
31.01.2009 14:00 0,4 C 77 % 1017,7 hPa 0,0 l/m 6,4 km/h (2 Bft) W-NW -3,3 C 0,2 C 16,5 km/h (3 Bft)
31.01.2009 15:00 0,2 C 76 % 1017,5 hPa 0,0 l/m 4,9 km/h (1 Bft) W-SW -3,6 C 0,2 C 12,1 km/h (2 Bft)
31.01.2009 16:00 -0,2 C 75 % 1017,3 hPa 0,0 l/m 3,9 km/h (1 Bft) W -4,1 C -0,2 C 10,9 km/h (2 Bft)
31.01.2009 17:00 -0,8 C 78 % 1017,3 hPa 0,0 l/m 2,7 km/h (1 Bft) W -4,2 C -0,8 C 8,0 km/h (2 Bft)
31.01.2009 18:00 -0,6 C 78 % 1016,9 hPa 0,0 l/m 3,2 km/h (1 Bft) W-SW -3,9 C -0,6 C 7,6 km/h (2 Bft)
31.01.2009 19:00 -0,7 C 79 % 1016,5 hPa 0,0 l/m 1,9 km/h (1 Bft) W-SW -3,9 C -0,7 C 6,8 km/h (2 Bft)
31.01.2009 20:00 -0,6 C 79 % 1016,2 hPa 0,0 l/m 1,9 km/h (1 Bft) W-SW -3,8 C -0,6 C 7,6 km/h (2 Bft)
31.01.2009 21:00 -0,7 C 80 % 1015,9 hPa 0,0 l/m 0,4 km/h (0 Bft) N -3,8 C -0,7 C 4,4 km/h (1 Bft)
31.01.2009 22:00 -0,6 C 80 % 1015,6 hPa 0,0 l/m 0,9 km/h (0 Bft) W-NW -3,7 C -0,6 C 4,4 km/h (1 Bft)
31.01.2009 23:00 -0,8 C 80 % 1015,1 hPa 0,0 l/m 0,6 km/h (0 Bft) N -3,8 C -0,8 C 2,4 km/h (1 Bft)
01.02.2009 00:00 -1,0 C 82 % 1014,8 hPa 0,0 l/m 0,1 km/h (0 Bft) N -3,8 C -1,0 C 1,2 km/h (1 Bft)
01.02.2009 01:00 -1,0 C 83 % 1014,4 hPa 0,0 l/m 0,2 km/h (0 Bft) O-NO -3,5 C -1,0 C 1,6 km/h (1 Bft)
01.02.2009 02:00 -1,1 C 85 % 1014,3 hPa 0,0 l/m 2,9 km/h (1 Bft) O-NO -3,3 C -1,1 C 6,0 km/h (2 Bft)
01.02.2009 03:00 -1,7 C 86 % 1014,0 hPa 0,0 l/m 3,1 km/h (1 Bft) O -3,8 C -1,7 C 6,8 km/h (2 Bft)
01.02.2009 04:00 -1,9 C 87 % 1014,0 hPa 0,0 l/m 1,6 km/h (1 Bft) O-SO -3,9 C -1,9 C 4,8 km/h (1 Bft)
01.02.2009 05:00 -2,2 C 88 % 1014,1 hPa 0,0 l/m 1,0 km/h (0 Bft) O-SO -4,0 C -2,2 C 4,0 km/h (1 Bft)
01.02.2009 06:00 -2,3 C 88 % 1014,2 hPa 0,0 l/m 0,9 km/h (0 Bft) O-SO -4,0 C -2,3 C 4,0 km/h (1 Bft)
01.02.2009 07:00 -2,4 C 89 % 1014,4 hPa 0,0 l/m 0,6 km/h (0 Bft) O-SO -4,0 C -2,4 C 3,2 km/h (1 Bft)
01.02.2009 08:00 -2,3 C 90 % 1014,6 hPa 0,0 l/m 0,7 km/h (0 Bft) O-SO -3,7 C -2,3 C 3,6 km/h (1 Bft)
01.02.2009 09:00 -1,9 C 90 % 1014,4 hPa 0,0 l/m 2,8 km/h (1 Bft) O-SO -3,3 C -1,9 C 6,4 km/h (2 Bft)
01.02.2009 10:00 -1,8 C 90 % 1014,3 hPa 0,0 l/m 4,1 km/h (1 Bft) O-SO -3,2 C -1,8 C 9,3 km/h (2 Bft)
01.02.2009 11:00 -1,4 C 91 % 1014,4 hPa 0,0 l/m 3,3 km/h (1 Bft) O-NO -2,8 C -1,4 C 8,8 km/h (2 Bft)
01.02.2009 12:00 -0,9 C 90 % 1014,2 hPa 0,0 l/m 2,8 km/h (1 Bft) SO -2,3 C -0,9 C 10,5 km/h (2 Bft)
01.02.2009 13:00 -0,7 C 89 % 1014,0 hPa 0,0 l/m 2,8 km/h (1 Bft) SO -2,2 C -0,7 C 8,4 km/h (2 Bft)
01.02.2009 14:00 -0,7 C 89 % 1013,7 hPa 0,0 l/m 4,1 km/h (1 Bft) O-SO -2,3 C -0,7 C 12,5 km/h (3 Bft)
01.02.2009 15:00 -0,6 C 89 % 1013,9 hPa 0,0 l/m 3,3 km/h (1 Bft) S-SO -2,2 C -0,6 C 12,1 km/h (2 Bft)
01.02.2009 16:00 -0,7 C 89 % 1014,1 hPa 0,0 l/m 3,5 km/h (1 Bft) O-SO -2,3 C -0,7 C 11,3 km/h (2 Bft)
01.02.2009 17:00 -0,6 C 88 % 1014,3 hPa 0,0 l/m 3,4 km/h (1 Bft) SO -2,3 C -0,6 C 12,9 km/h (3 Bft)
01.02.2009 18:00 -0,6 C 87 % 1014,6 hPa 0,0 l/m 3,4 km/h (1 Bft) SO -2,6 C -0,6 C 9,3 km/h (2 Bft)
01.02.2009 19:00 -0,4 C 84 % 1015,1 hPa 0,0 l/m 4,0 km/h (1 Bft) O-NO -2,8 C -0,4 C 11,7 km/h (2 Bft)
01.02.2009 20:00 -0,4 C 83 % 1015,2 hPa 0,0 l/m 4,6 km/h (1 Bft) S-SO -2,9 C -0,4 C 13,3 km/h (3 Bft)
01.02.2009 21:00 -0,4 C 84 % 1015,6 hPa 0,0 l/m 3,7 km/h (1 Bft) O-NO -2,7 C -0,4 C 14,1 km/h (3 Bft)
01.02.2009 22:00 -0,7 C 89 % 1015,6 hPa 0,0 l/m 6,8 km/h (2 Bft) S-SO -2,4 C -1,2 C 15,7 km/h (3 Bft)
01.02.2009 23:00 -0,8 C 91 % 1015,8 hPa 0,0 l/m 4,6 km/h (1 Bft) S-SO -2,1 C -0,9 C 13,7 km/h (3 Bft)
Min-Datum _ 27.01.09 26.01.09 26.01.09 - 26.01.09 - 27.01.09 29.01.09 26.01.09
_ Min-Zeit 00:15 14:45 01:15 - 00:00 - 00:00 05:00 00:00
Minimum _ -3,3 C 70 % 1001,9 hPa - 0,0 km/h (0 Bft) - -4,7 C -6,8 C 0,0 km/h (0 Bft)
Max-Datum _ 26.01.09 27.01.09 30.01.09 27.01.09 28.01.09 - 26.01.09 26.01.09 29.01.09
_ Max-Zeit 14:45 09:00 10:15 11:00 22:45 - 14:30 14:45 00:30
Maximum _ 5,8 C 93 % 1024,5 hPa 1,2 l/m 15,3 km/h
NW (3 Bft)
- 0,8 C 5,6 C 32,2 km/h
NW (5 Bft)
Durchschnitt _ -0,2 C 86 % 1014,6 hPa #13,5 l/m 5,6 km/h (1 Bft) NW -2,3 C -1,5 C 12,9 km/h (3 Bft)